Time;durP1;ratioP1;P1;durP2;ratioP2;P2;SDS_P1;SDS_P2;PMS_P1;PMS_P2;Temp;Humidity;BMP_temperature;BMP_pressure;BME280_temperature;BME280_humidity;BME280_pressure;Samples;Min_cycle;Max_cycle;Signal;HPM_P1;HPM_P2
2023/08/16 00:00:20;;;;;;;10.53;9.57;;;19.90;99.90;;;;;;6187960;23;20237;-64
2023/08/16 00:02:45;;;;;;;14.70;11.57;;;19.90;99.90;;;;;;6187968;23;20186;-66
2023/08/16 00:05:11;;;;;;;11.30;10.30;;;20.00;99.90;;;;;;6188007;23;20143;-66
2023/08/16 00:07:38;;;;;;;11.37;10.37;;;20.00;99.90;;;;;;6188848;23;20219;-66
2023/08/16 00:10:09;;;;;;;10.70;9.40;;;20.00;99.90;;;;;;6187639;23;20417;-65
2023/08/16 00:12:35;;;;;;;10.20;9.00;;;20.00;99.90;;;;;;6188180;23;20416;-67
2023/08/16 00:15:00;;;;;;;10.23;9.23;;;20.00;99.90;;;;;;6187732;23;20739;-67
2023/08/16 00:17:27;;;;;;;9.10;8.37;;;19.90;99.90;;;;;;6188338;23;20196;-65
2023/08/16 00:19:52;;;;;;;10.27;9.27;;;19.90;99.90;;;;;;6187041;23;20163;-65
2023/08/16 00:22:18;;;;;;;9.33;8.53;;;19.90;99.90;;;;;;6187973;23;20354;-66
2023/08/16 00:24:43;;;;;;;11.63;9.60;;;19.80;99.90;;;;;;6188242;23;20139;-65
2023/08/16 00:27:09;;;;;;;10.50;9.50;;;19.70;99.90;;;;;;6188140;23;20437;-66
2023/08/16 00:29:34;;;;;;;12.00;10.37;;;19.70;99.90;;;;;;6189040;23;20565;-67
2023/08/16 00:32:02;;;;;;;10.13;9.33;;;19.70;99.90;;;;;;6195543;23;20302;-67
2023/08/16 00:34:28;;;;;;;8.87;8.07;;;19.60;99.90;;;;;;6194073;23;20141;-66
2023/08/16 00:36:53;;;;;;;9.57;8.83;;;19.60;99.90;;;;;;6190071;23;20381;-67
2023/08/16 00:39:19;;;;;;;9.13;8.40;;;19.60;99.90;;;;;;6161158;23;20160;-66
2023/08/16 00:41:44;;;;;;;9.60;8.77;;;19.60;99.90;;;;;;6160971;23;20173;-66
2023/08/16 00:44:10;;;;;;;10.20;9.20;;;19.50;99.90;;;;;;6188127;23;20218;-65
2023/08/16 00:46:35;;;;;;;11.17;10.10;;;19.50;99.90;;;;;;6187852;23;20135;-66
2023/08/16 00:49:02;;;;;;;11.90;9.40;;;19.50;99.90;;;;;;6187417;23;20139;-66
2023/08/16 00:51:27;;;;;;;10.03;9.23;;;19.40;99.90;;;;;;6187505;23;20234;-67
2023/08/16 00:53:54;;;;;;;10.90;10.00;;;19.40;99.90;;;;;;6187744;23;20763;-67
2023/08/16 00:56:20;;;;;;;10.50;8.80;;;19.40;99.90;;;;;;6165169;23;20150;-67
2023/08/16 00:58:45;;;;;;;11.87;10.63;;;19.30;99.90;;;;;;6191304;23;20464;-65
2023/08/16 01:01:11;;;;;;;10.60;9.50;;;19.30;99.90;;;;;;6187715;23;20441;-66
2023/08/16 01:03:37;;;;;;;12.10;11.10;;;19.30;99.90;;;;;;6186831;23;20134;-66
2023/08/16 01:06:05;;;;;;;11.70;10.70;;;19.20;99.90;;;;;;6187092;23;20778;-66
2023/08/16 01:08:32;;;;;;;10.00;9.03;;;19.20;99.90;;;;;;6187813;23;20131;-66
2023/08/16 01:11:14;;;;;;;11.57;10.40;;;19.20;99.90;;;;;;6187092;23;20613;-66
2023/08/16 01:13:59;;;;;;;10.77;9.77;;;19.20;99.90;;;;;;6187773;23;20509;-66
2023/08/16 01:16:27;;;;;;;9.53;8.73;;;19.20;99.90;;;;;;6187807;23;20452;-65
2023/08/16 01:18:54;;;;;;;10.47;9.47;;;19.20;99.90;;;;;;6186994;23;20836;-67
2023/08/16 01:21:21;;;;;;;11.27;10.07;;;19.10;99.90;;;;;;6186932;23;20444;-65
2023/08/16 01:24:28;;;;;;;12.73;11.53;;;19.10;99.90;;;;;;6187138;23;20377;-65
2023/08/16 01:26:55;;;;;;;12.43;11.13;;;19.00;99.90;;;;;;6170911;23;20802;-67
2023/08/16 01:29:23;;;;;;;13.60;12.30;;;19.00;99.90;;;;;;6160522;23;20408;-66
2023/08/16 01:31:48;;;;;;;13.00;11.73;;;19.00;99.90;;;;;;6187003;23;20841;-66
2023/08/16 01:34:14;;;;;;;13.10;11.90;;;19.00;99.90;;;;;;6187512;23;20443;-65
2023/08/16 01:36:39;;;;;;;15.20;13.80;;;19.00;99.90;;;;;;6187370;23;20194;-66
2023/08/16 01:39:06;;;;;;;13.50;12.20;;;18.90;99.90;;;;;;6187546;23;20181;-65
2023/08/16 01:41:50;;;;;;;12.47;11.33;;;18.90;99.90;;;;;;6186482;23;20414;-65
2023/08/16 01:44:18;;;;;;;13.33;12.10;;;18.90;99.90;;;;;;6187634;23;20134;-66
2023/08/16 01:46:45;;;;;;;15.97;14.57;;;18.80;99.90;;;;;;6189956;23;20779;-65
2023/08/16 01:49:11;;;;;;;17.73;15.10;;;18.80;99.90;;;;;;6191694;23;20358;-66
2023/08/16 01:51:38;;;;;;;16.07;14.27;;;18.80;99.90;;;;;;6192087;23;20605;-66
2023/08/16 01:54:05;;;;;;;15.00;13.70;;;18.80;99.90;;;;;;6142624;23;20795;-66
2023/08/16 01:56:31;;;;;;;13.90;12.60;;;18.70;99.90;;;;;;6191613;23;20437;-67
2023/08/16 01:58:58;;;;;;;16.67;14.77;;;18.70;99.90;;;;;;6162100;23;20380;-67
2023/08/16 02:01:23;;;;;;;17.83;15.80;;;18.70;99.90;;;;;;6160919;23;20445;-66
2023/08/16 02:03:49;;;;;;;17.00;15.30;;;18.70;99.90;;;;;;6160998;23;20143;-65
2023/08/16 02:06:15;;;;;;;19.10;17.20;;;18.60;99.90;;;;;;6160995;23;20281;-65
2023/08/16 02:08:40;;;;;;;17.23;15.63;;;18.60;99.90;;;;;;6160780;23;20139;-65
2023/08/16 02:11:06;;;;;;;15.73;14.33;;;18.60;99.90;;;;;;6160351;23;20178;-67
2023/08/16 02:13:31;;;;;;;16.93;15.40;;;18.60;99.90;;;;;;6161174;23;20467;-67
2023/08/16 02:16:03;;;;;;;17.17;15.47;;;18.50;99.90;;;;;;6161656;23;20221;-68
2023/08/16 02:18:30;;;;;;;19.33;17.33;;;18.50;99.90;;;;;;6161005;23;20166;-66
2023/08/16 02:20:56;;;;;;;16.73;15.20;;;18.50;99.90;;;;;;6160466;23;20410;-66
2023/08/16 02:23:22;;;;;;;20.20;18.20;;;18.40;99.90;;;;;;6188353;23;20365;-66
2023/08/16 02:25:48;;;;;;;17.93;16.13;;;18.40;99.90;;;;;;6187664;23;20410;-67
2023/08/16 02:28:13;;;;;;;17.40;15.70;;;18.40;99.90;;;;;;6188289;23;20503;-65
2023/08/16 02:30:39;;;;;;;16.27;14.73;;;18.40;99.90;;;;;;6188107;23;20296;-65
2023/08/16 02:33:04;;;;;;;17.17;15.50;;;18.40;99.90;;;;;;6189136;23;20141;-65
2023/08/16 02:35:31;;;;;;;19.13;17.27;;;18.40;99.90;;;;;;6188506;23;20150;-65
2023/08/16 02:37:57;;;;;;;20.10;18.10;;;18.40;99.90;;;;;;6188882;23;20222;-65
2023/08/16 02:40:22;;;;;;;22.63;20.33;;;18.40;99.90;;;;;;6187857;23;20417;-66
2023/08/16 02:42:49;;;;;;;19.07;17.33;;;18.40;99.90;;;;;;6162090;23;20384;-65
2023/08/16 02:45:15;;;;;;;17.00;15.50;;;18.40;99.90;;;;;;6189067;23;20146;-65
2023/08/16 02:47:41;;;;;;;16.17;14.53;;;18.40;99.90;;;;;;6188976;23;20385;-65
2023/08/16 02:50:07;;;;;;;19.73;17.93;;;18.40;99.90;;;;;;6187926;23;20398;-66
2023/08/16 02:52:32;;;;;;;22.03;19.80;;;18.40;99.90;;;;;;6188530;23;20196;-65
2023/08/16 02:54:58;;;;;;;19.93;17.73;;;18.50;99.90;;;;;;6162410;23;20389;-65
2023/08/16 02:57:25;;;;;;;19.20;17.40;;;18.40;99.90;;;;;;6188815;23;20209;-66
2023/08/16 02:59:51;;;;;;;17.57;15.87;;;18.50;99.90;;;;;;6191710;23;20783;-66
2023/08/16 03:02:17;;;;;;;19.57;17.67;;;18.50;99.90;;;;;;6192158;23;20142;-65
2023/08/16 03:04:42;;;;;;;18.37;16.00;;;18.50;99.90;;;;;;6190734;23;20432;-66
2023/08/16 03:07:10;;;;;;;18.30;16.50;;;18.50;99.90;;;;;;6162723;23;20147;-65
2023/08/16 03:09:36;;;;;;;16.23;14.73;;;18.60;99.90;;;;;;6188022;23;20190;-66
2023/08/16 03:12:03;;;;;;;16.73;15.13;;;18.60;99.90;;;;;;6187826;23;20370;-66
2023/08/16 03:14:29;;;;;;;16.80;15.20;;;18.70;99.90;;;;;;6187978;23;20417;-66
2023/08/16 03:16:56;;;;;;;20.30;18.37;;;18.80;99.90;;;;;;6188356;23;20712;-66
2023/08/16 03:19:22;;;;;;;18.33;16.63;;;18.90;99.90;;;;;;6188515;23;20367;-66
2023/08/16 03:21:48;;;;;;;17.33;15.70;;;18.90;99.90;;;;;;6161792;23;20414;-66
2023/08/16 03:24:13;;;;;;;23.83;19.80;;;18.90;99.90;;;;;;6190118;23;20131;-66
2023/08/16 03:26:39;;;;;;;17.53;15.87;;;19.00;99.90;;;;;;6163407;23;20167;-66
2023/08/16 03:29:05;;;;;;;18.30;16.40;;;19.00;99.90;;;;;;6162530;23;20173;-66
2023/08/16 03:31:31;;;;;;;22.40;20.10;;;19.10;99.90;;;;;;6161575;23;20183;-66
2023/08/16 03:33:57;;;;;;;25.97;23.17;;;19.00;99.90;;;;;;6187935;23;20830;-66
2023/08/16 03:36:24;;;;;;;20.10;18.27;;;19.10;99.90;;;;;;6162053;23;20285;-65
2023/08/16 03:38:49;;;;;;;22.07;19.97;;;19.10;99.90;;;;;;6161354;23;20139;-65
2023/08/16 03:41:15;;;;;;;18.10;16.40;;;19.10;99.90;;;;;;6161520;23;20520;-66
2023/08/16 03:43:41;;;;;;;19.10;17.40;;;19.10;99.90;;;;;;6161719;23;20415;-66
2023/08/16 03:46:07;;;;;;;17.00;15.37;;;19.10;99.90;;;;;;6161046;23;20277;-66
2023/08/16 03:48:33;;;;;;;15.17;13.70;;;19.10;99.90;;;;;;6187756;23;20568;-66
2023/08/16 03:50:58;;;;;;;15.80;14.40;;;19.20;99.90;;;;;;6187739;23;20392;-66
2023/08/16 03:53:24;;;;;;;14.73;13.43;;;19.20;99.90;;;;;;6189777;23;20361;-66
2023/08/16 03:55:55;;;;;;;15.37;13.87;;;19.20;99.90;;;;;;6190609;23;20509;-65
2023/08/16 03:58:21;;;;;;;15.30;13.90;;;19.20;99.90;;;;;;6191118;23;20213;-66
2023/08/16 04:00:48;;;;;;;17.10;15.30;;;19.20;99.90;;;;;;6189813;23;20425;-66
2023/08/16 04:03:13;;;;;;;19.07;17.27;;;19.20;99.90;;;;;;6187647;23;20354;-65
2023/08/16 04:05:39;;;;;;;19.10;17.30;;;19.30;99.90;;;;;;6161269;23;20378;-65
2023/08/16 04:08:05;;;;;;;19.67;17.87;;;19.30;99.90;;;;;;6189360;23;20127;-65
2023/08/16 04:10:30;;;;;;;23.33;20.83;;;19.30;99.90;;;;;;6187746;23;20166;-67
2023/08/16 04:12:56;;;;;;;23.30;20.77;;;19.30;99.90;;;;;;6186830;23;20130;-66
2023/08/16 04:15:22;;;;;;;25.37;22.93;;;19.30;99.90;;;;;;6187357;23;20422;-67
2023/08/16 04:17:47;;;;;;;23.07;20.67;;;19.20;99.90;;;;;;6188021;23;20428;-66
2023/08/16 04:20:13;;;;;;;20.87;19.03;;;19.20;99.90;;;;;;6160889;23;20196;-66
2023/08/16 04:22:38;;;;;;;22.10;19.90;;;19.20;99.90;;;;;;6187154;23;20165;-66
2023/08/16 04:25:04;;;;;;;22.03;19.83;;;19.20;99.90;;;;;;6187285;23;20258;-66
2023/08/16 04:27:30;;;;;;;21.83;19.23;;;19.20;99.90;;;;;;6186947;23;20142;-66
2023/08/16 04:29:55;;;;;;;18.90;17.10;;;19.20;99.90;;;;;;6187329;23;20794;-66
2023/08/16 04:32:21;;;;;;;19.77;17.77;;;19.10;99.90;;;;;;6161410;23;20150;-66
2023/08/16 04:34:46;;;;;;;19.23;17.43;;;19.20;99.90;;;;;;6162002;23;20130;-67
2023/08/16 04:37:12;;;;;;;17.07;15.37;;;19.10;99.90;;;;;;6162033;23;20197;-68
2023/08/16 04:39:38;;;;;;;17.37;15.43;;;19.20;99.90;;;;;;6161033;23;20262;-66
2023/08/16 04:42:04;;;;;;;16.00;14.50;;;19.20;99.90;;;;;;6161594;23;20170;-66
2023/08/16 04:44:29;;;;;;;17.47;15.77;;;19.20;99.90;;;;;;6187064;23;20147;-67
2023/08/16 04:46:55;;;;;;;18.87;17.07;;;19.20;99.90;;;;;;6163087;23;20534;-66
2023/08/16 04:49:21;;;;;;;17.37;15.67;;;19.20;99.90;;;;;;6187281;23;20147;-67
2023/08/16 04:51:47;;;;;;;18.63;16.73;;;19.20;99.90;;;;;;6161647;23;20222;-66
2023/08/16 04:54:13;;;;;;;19.60;17.67;;;19.20;99.90;;;;;;6161585;23;20450;-66
2023/08/16 04:56:39;;;;;;;17.07;15.33;;;19.20;99.90;;;;;;6160826;23;20390;-66
2023/08/16 04:59:05;;;;;;;18.27;16.47;;;19.10;99.90;;;;;;6161523;23;20152;-67
2023/08/16 05:01:31;;;;;;;19.57;17.63;;;19.10;99.90;;;;;;6190602;23;20786;-67
2023/08/16 05:03:58;;;;;;;23.03;19.57;;;19.10;99.90;;;;;;6167420;23;20151;-67
2023/08/16 05:06:25;;;;;;;20.93;18.77;;;19.20;99.90;;;;;;6169099;23;20375;-67
2023/08/16 05:08:50;;;;;;;18.60;16.63;;;19.20;99.90;;;;;;6170618;23;20374;-67
2023/08/16 05:11:17;;;;;;;21.80;19.73;;;19.20;99.90;;;;;;6169562;23;20171;-68
2023/08/16 05:13:44;;;;;;;20.10;18.20;;;19.20;99.90;;;;;;6168235;23;20418;-66
2023/08/16 05:16:11;;;;;;;17.47;15.87;;;19.20;99.90;;;;;;6194411;23;20378;-68
2023/08/16 05:18:37;;;;;;;19.40;17.30;;;19.20;99.90;;;;;;6166853;23;20404;-70
2023/08/16 05:21:03;;;;;;;15.50;14.10;;;19.20;99.90;;;;;;6168464;23;20232;-68
2023/08/16 05:23:29;;;;;;;20.20;18.07;;;19.20;99.90;;;;;;6193702;23;20393;-69
2023/08/16 05:25:54;;;;;;;15.97;14.37;;;19.30;99.90;;;;;;6196572;23;20135;-68
2023/08/16 05:28:20;;;;;;;17.07;15.47;;;19.30;99.90;;;;;;6196367;23;20353;-69
2023/08/16 05:30:46;;;;;;;16.57;15.00;;;19.40;99.90;;;;;;6192875;23;20413;-69
2023/08/16 05:33:11;;;;;;;20.80;17.87;;;19.40;99.90;;;;;;6194371;23;20197;-68
2023/08/16 05:35:37;;;;;;;21.67;18.40;;;19.50;99.90;;;;;;6195281;23;20147;-68
2023/08/16 05:38:05;;;;;;;19.80;17.73;;;19.50;99.90;;;;;;6194345;23;20150;-69
2023/08/16 05:40:30;;;;;;;17.17;15.47;;;19.50;99.90;;;;;;6192569;23;20166;-68
2023/08/16 05:42:56;;;;;;;14.53;13.23;;;19.50;99.90;;;;;;6193627;23;20370;-68
2023/08/16 05:45:26;;;;;;;21.83;19.53;;;19.60;99.90;;;;;;6166867;23;20437;-68
2023/08/16 05:47:56;;;;;;;17.87;15.93;;;19.70;99.90;;;;;;6194164;23;20197;-69
2023/08/16 05:50:23;;;;;;;19.00;17.00;;;19.70;99.90;;;;;;6195396;23;20401;-72
2023/08/16 05:52:48;;;;;;;23.07;20.70;;;19.70;99.90;;;;;;6170017;23;20420;-69
2023/08/16 05:55:15;;;;;;;24.23;21.60;;;19.70;99.90;;;;;;6195133;23;20771;-67
2023/08/16 05:57:41;;;;;;;24.17;21.63;;;19.80;99.90;;;;;;6193957;23;20191;-68
2023/08/16 06:00:07;;;;;;;22.70;20.33;;;19.80;99.90;;;;;;6192250;23;20492;-68
2023/08/16 06:02:37;;;;;;;19.80;17.83;;;19.80;99.90;;;;;;6197362;23;20350;-70
2023/08/16 06:05:04;;;;;;;18.63;16.70;;;19.80;99.90;;;;;;6197378;23;20358;-67
2023/08/16 06:07:30;;;;;;;21.33;19.20;;;19.90;99.90;;;;;;6197519;23;20194;-71
2023/08/16 06:09:56;;;;;;;16.73;15.07;;;19.90;99.90;;;;;;6171845;23;20668;-71
2023/08/16 06:12:22;;;;;;;18.77;16.90;;;19.90;99.90;;;;;;6170735;23;20174;-69
2023/08/16 06:14:48;;;;;;;18.53;15.27;;;20.00;99.90;;;;;;6172405;23;20680;-68
2023/08/16 06:17:13;;;;;;;18.37;16.47;;;20.10;99.90;;;;;;6198682;23;20147;-72
2023/08/16 06:19:39;;;;;;;15.63;14.07;;;20.10;99.90;;;;;;6200291;23;20170;-70
2023/08/16 06:22:04;;;;;;;15.00;13.50;;;20.20;99.90;;;;;;6170035;23;20182;-69
2023/08/16 06:24:33;;;;;;;17.33;15.20;;;20.30;99.90;;;;;;6196618;23;20177;-69
2023/08/16 06:26:59;;;;;;;14.33;12.93;;;20.30;99.90;;;;;;6197272;23;20215;-68
2023/08/16 06:29:25;;;;;;;19.23;16.80;;;20.30;99.90;;;;;;6197031;23;20643;-68
2023/08/16 06:31:50;;;;;;;16.37;14.20;;;20.30;99.90;;;;;;6196104;23;20139;-69
2023/08/16 06:34:17;;;;;;;15.50;13.90;;;20.30;99.90;;;;;;6197996;23;20191;-71
2023/08/16 06:36:44;;;;;;;14.07;12.00;;;20.30;99.90;;;;;;6198991;23;20522;-71
2023/08/16 06:39:09;;;;;;;13.87;11.80;;;20.30;99.90;;;;;;6148840;23;20413;-67
2023/08/16 06:41:35;;;;;;;12.03;10.90;;;20.30;99.90;;;;;;6172449;23;20496;-69
2023/08/16 06:44:00;;;;;;;13.07;11.80;;;20.30;99.90;;;;;;6172344;23;20139;-68
2023/08/16 06:46:26;;;;;;;21.23;16.77;;;20.40;99.90;;;;;;6198626;23;20200;-71
2023/08/16 06:48:52;;;;;;;15.73;14.13;;;20.50;99.90;;;;;;6171483;23;20195;-66
2023/08/16 06:51:18;;;;;;;29.93;21.07;;;20.60;99.90;;;;;;6198085;23;20193;-69
2023/08/16 06:53:45;;;;;;;24.60;19.77;;;20.60;99.90;;;;;;6201626;23;20351;-69
2023/08/16 06:56:11;;;;;;;19.43;17.30;;;20.60;99.90;;;;;;6201065;23;20135;-69
2023/08/16 06:58:37;;;;;;;20.27;17.77;;;20.80;99.90;;;;;;6197262;23;20370;-69
2023/08/16 07:01:03;;;;;;;23.50;18.77;;;20.90;99.90;;;;;;6197469;23;20456;-72
2023/08/16 07:03:29;;;;;;;18.70;16.53;;;21.00;99.90;;;;;;6172202;23;20146;-68
2023/08/16 07:05:54;;;;;;;26.77;21.87;;;21.10;99.90;;;;;;6199809;23;20142;-71
2023/08/16 07:08:21;;;;;;;27.03;21.00;;;21.10;99.90;;;;;;6199012;23;20143;-69
2023/08/16 07:10:47;;;;;;;22.63;20.30;;;21.20;99.90;;;;;;6198209;23;20174;-71
2023/08/16 07:13:13;;;;;;;20.83;18.07;;;21.30;99.90;;;;;;6197633;23;20408;-68
2023/08/16 07:15:38;;;;;;;17.67;16.00;;;21.30;99.90;;;;;;6198565;23;20463;-68
2023/08/16 07:18:04;;;;;;;16.43;14.83;;;21.30;99.90;;;;;;6174940;23;20205;-70
2023/08/16 07:20:31;;;;;;;23.90;21.40;;;21.30;99.90;;;;;;6199197;23;20213;-69
2023/08/16 07:22:58;;;;;;;21.47;19.10;;;21.30;99.90;;;;;;6175356;23;20245;-69
2023/08/16 07:25:26;;;;;;;24.07;21.57;;;21.20;99.90;;;;;;6203824;23;20358;-69
2023/08/16 07:27:52;;;;;;;30.60;26.17;;;21.20;99.90;;;;;;6202235;23;20386;-69
2023/08/16 07:30:17;;;;;;;29.97;24.37;;;21.20;99.90;;;;;;6172225;23;20655;-68
2023/08/16 07:32:43;;;;;;;27.47;24.60;;;21.10;99.90;;;;;;6196101;23;20162;-71
2023/08/16 07:35:09;;;;;;;29.23;25.93;;;21.10;99.90;;;;;;6200310;23;20366;-71
2023/08/16 07:37:36;;;;;;;28.20;25.10;;;21.10;99.90;;;;;;6173336;23;20147;-70
2023/08/16 07:40:03;;;;;;;26.17;23.47;;;21.10;99.90;;;;;;6202664;23;20373;-68
2023/08/16 07:42:28;;;;;;;23.43;20.93;;;21.10;99.90;;;;;;6174462;23;20433;-69
2023/08/16 07:44:54;;;;;;;19.47;17.57;;;21.10;99.90;;;;;;6172871;23;20381;-70
2023/08/16 07:47:20;;;;;;;18.03;16.33;;;21.30;99.90;;;;;;6173209;23;20193;-71
2023/08/16 07:49:45;;;;;;;19.90;16.33;;;21.30;99.90;;;;;;6146931;23;20461;-70
2023/08/16 07:52:11;;;;;;;16.60;15.10;;;21.40;99.90;;;;;;6195302;23;20145;-68
2023/08/16 07:54:36;;;;;;;17.67;15.97;;;21.50;99.90;;;;;;6172507;23;20143;-70
2023/08/16 07:57:02;;;;;;;16.10;14.50;;;21.60;99.90;;;;;;6199822;23;20142;-67
2023/08/16 07:59:28;;;;;;;17.27;14.53;;;21.70;99.90;;;;;;6197719;23;20496;-69
2023/08/16 08:01:54;;;;;;;18.10;15.10;;;21.70;99.90;;;;;;6197609;23;20158;-68
2023/08/16 08:04:19;;;;;;;15.80;13.00;;;21.90;99.90;;;;;;6198607;23;20142;-70
2023/08/16 08:06:46;;;;;;;15.50;13.80;;;22.00;99.90;;;;;;6199621;23;20766;-69
2023/08/16 08:09:13;;;;;;;16.17;14.53;;;22.10;99.90;;;;;;6172133;23;20162;-71
2023/08/16 08:11:39;;;;;;;18.23;16.27;;;22.20;99.90;;;;;;6197062;23;20381;-68
2023/08/16 08:14:05;;;;;;;15.67;14.17;;;22.30;99.90;;;;;;6200082;23;20413;-70
2023/08/16 08:16:31;;;;;;;17.17;15.23;;;22.50;99.90;;;;;;6198225;23;20161;-70
2023/08/16 08:18:57;;;;;;;15.93;14.43;;;22.90;99.90;;;;;;6197687;23;20567;-68
2023/08/16 08:21:22;;;;;;;14.03;11.10;;;23.10;99.90;;;;;;6198800;23;20421;-69
2023/08/16 08:23:48;;;;;;;17.27;14.80;;;23.40;99.90;;;;;;6169925;23;20135;-71
2023/08/16 08:26:15;;;;;;;17.40;15.70;;;23.60;99.90;;;;;;6194524;23;20146;-70
2023/08/16 08:28:42;;;;;;;15.20;13.70;;;23.60;99.90;;;;;;6200995;23;20205;-70
2023/08/16 08:31:08;;;;;;;13.90;12.50;;;23.60;99.90;;;;;;6203813;23;20400;-68
2023/08/16 08:33:34;;;;;;;13.10;11.87;;;23.60;99.90;;;;;;6204654;23;20402;-71
2023/08/16 08:36:00;;;;;;;12.30;11.20;;;23.60;99.90;;;;;;6178929;23;20151;-69
2023/08/16 08:38:25;;;;;;;13.20;11.90;;;23.60;99.90;;;;;;6206028;23;20377;-71
2023/08/16 08:41:02;;;;;;;13.00;11.63;;;23.70;99.90;;;;;;6179040;23;20225;-68
2023/08/16 08:43:40;;;;;;;17.60;14.60;;;23.80;99.90;;;;;;6179114;23;20169;-70
2023/08/16 08:46:06;;;;;;;13.00;11.80;;;23.60;99.90;;;;;;6203903;23;20378;-72
2023/08/16 08:48:32;;;;;;;12.57;11.37;;;23.40;99.90;;;;;;6179735;23;20359;-70
2023/08/16 08:51:00;;;;;;;17.17;15.50;;;23.20;99.90;;;;;;6205982;23;20453;-68
2023/08/16 08:53:26;;;;;;;17.90;16.10;;;23.10;99.90;;;;;;6179957;23;20393;-71
2023/08/16 08:55:55;;;;;;;19.33;17.53;;;23.10;99.90;;;;;;6203796;23;20366;-69
2023/08/16 08:58:24;;;;;;;17.40;15.80;;;23.00;99.90;;;;;;6204930;23;20359;-72
2023/08/16 09:00:53;;;;;;;19.10;16.80;;;23.00;99.90;;;;;;6153551;23;20422;-70
2023/08/16 09:03:22;;;;;;;17.70;15.97;;;23.00;99.90;;;;;;6180513;23;20369;-69
2023/08/16 09:05:51;;;;;;;16.70;15.20;;;23.00;99.90;;;;;;6153552;23;20397;-70
2023/08/16 09:08:17;;;;;;;14.97;13.47;;;23.10;99.90;;;;;;6156932;23;20374;-71
2023/08/16 09:10:44;;;;;;;13.67;12.37;;;23.20;99.90;;;;;;6156361;23;20398;-70
2023/08/16 09:13:11;;;;;;;15.37;13.80;;;23.20;99.90;;;;;;6157210;23;20362;-70
2023/08/16 09:15:37;;;;;;;16.20;13.27;;;23.30;99.90;;;;;;6131644;23;20519;-72
2023/08/16 09:18:17;;;;;;;15.77;14.10;;;23.40;99.90;;;;;;6178497;23;20382;-72
2023/08/16 09:20:44;;;;;;;15.07;13.67;;;23.60;99.90;;;;;;6204780;23;20421;-70
2023/08/16 09:23:13;;;;;;;16.93;15.40;;;23.70;99.90;;;;;;6201113;23;20350;-71
2023/08/16 09:25:39;;;;;;;13.67;12.37;;;23.80;99.90;;;;;;6200847;23;20357;-71
2023/08/16 09:28:09;;;;;;;15.37;13.87;;;23.70;99.90;;;;;;6177040;23;20640;-70
2023/08/16 09:30:36;;;;;;;17.57;15.53;;;23.80;99.90;;;;;;6179086;23;20401;-72
2023/08/16 09:33:04;;;;;;;18.40;16.33;;;23.70;99.90;;;;;;6175850;23;20663;-71
2023/08/16 09:35:38;;;;;;;16.70;15.13;;;23.70;99.90;;;;;;6204721;23;20414;-71
2023/08/16 09:38:04;;;;;;;15.90;14.27;;;23.70;99.90;;;;;;6136659;23;20386;-68
2023/08/16 09:40:29;;;;;;;23.13;18.03;;;23.90;99.90;;;;;;6179727;23;20463;-70
2023/08/16 09:43:00;;;;;;;20.43;18.33;;;24.10;99.90;;;;;;6180901;23;20149;-71
2023/08/16 09:45:33;;;;;;;16.67;15.00;;;24.30;99.90;;;;;;6178771;23;20149;-72
2023/08/16 09:48:04;;;;;;;16.10;13.27;;;24.40;99.90;;;;;;6156113;23;20374;-70
2023/08/16 09:50:34;;;;;;;13.80;12.40;;;24.60;99.90;;;;;;6207274;23;20451;-70
2023/08/16 09:53:03;;;;;;;14.90;13.50;;;24.80;99.90;;;;;;6155935;23;20381;-71
2023/08/16 09:55:35;;;;;;;15.80;14.23;;;25.10;99.90;;;;;;6179353;23;20380;-69
2023/08/16 09:58:01;;;;;;;16.40;13.90;;;25.30;99.90;;;;;;6156935;23;20438;-72
2023/08/16 10:00:28;;;;;;;13.97;12.57;;;25.60;99.90;;;;;;6206528;23;20409;-71
2023/08/16 10:02:56;;;;;;;13.83;12.53;;;25.70;99.90;;;;;;6182182;23;20381;-71
2023/08/16 10:05:21;;;;;;;13.27;12.07;;;25.80;99.90;;;;;;6184705;23;20378;-72
2023/08/16 10:07:48;;;;;;;13.70;12.50;;;25.80;99.90;;;;;;6184625;23;20801;-71
2023/08/16 10:10:18;;;;;;;15.37;13.80;;;25.70;99.90;;;;;;6159327;23;20397;-72
2023/08/16 10:12:47;;;;;;;14.83;13.23;;;25.80;99.90;;;;;;6159036;23;20366;-71
2023/08/16 10:15:14;;;;;;;13.70;12.30;;;25.80;99.90;;;;;;6175886;23;20422;-72
2023/08/16 10:17:41;;;;;;;11.27;10.27;;;26.00;99.90;;;;;;6177615;23;20469;-72
2023/08/16 10:20:22;;;;;;;11.90;10.80;;;26.10;99.90;;;;;;6128483;23;20470;-72
2023/08/16 10:22:53;;;;;;;10.90;9.90;;;26.20;99.90;;;;;;6152283;23;20791;-72
2023/08/16 10:25:23;;;;;;;14.43;13.10;;;26.40;99.90;;;;;;6176818;23;20347;-72
2023/08/16 10:27:56;;;;;;;13.57;12.17;;;26.50;97.30;;;;;;6152212;23;20406;-70
2023/08/16 10:30:24;;;;;;;10.57;9.57;;;26.40;97.30;;;;;;6152025;23;20430;-70
2023/08/16 10:33:06;;;;;;;12.60;11.40;;;26.30;98.10;;;;;;6151684;23;20504;-72
2023/08/16 10:35:34;;;;;;;11.20;10.07;;;26.30;97.20;;;;;;6153977;23;20390;-72
2023/08/16 10:38:03;;;;;;;12.40;9.83;;;26.50;98.40;;;;;;6151226;23;20386;-69
2023/08/16 10:40:28;;;;;;;11.27;10.10;;;26.40;96.30;;;;;;6153467;23;20671;-71
2023/08/16 10:42:58;;;;;;;9.87;8.97;;;26.50;95.40;;;;;;6150041;23;20359;-72
2023/08/16 10:45:29;;;;;;;10.20;9.27;;;26.50;95.70;;;;;;6177905;23;20136;-72
2023/08/16 10:47:56;;;;;;;12.63;10.87;;;26.50;96.00;;;;;;6125548;23;20382;-71
2023/08/16 10:50:37;;;;;;;10.10;9.20;;;26.40;96.30;;;;;;6176989;23;20454;-72
2023/08/16 10:53:04;;;;;;;12.43;11.33;;;26.40;96.90;;;;;;6179878;23;20375;-71
2023/08/16 10:55:30;;;;;;;13.87;12.57;;;26.30;97.20;;;;;;6154001;23;20454;-72
2023/08/16 10:58:01;;;;;;;14.93;13.23;;;26.40;96.70;;;;;;6155699;23;20379;-72
2023/08/16 11:00:32;;;;;;;15.97;14.37;;;26.30;97.10;;;;;;6152203;23;20186;-71
2023/08/16 11:03:01;;;;;;;15.90;14.47;;;26.10;97.80;;;;;;6155886;23;20371;-72
2023/08/16 11:05:29;;;;;;;14.93;13.50;;;26.00;99.10;;;;;;6131483;23;20355;-71
2023/08/16 11:07:55;;;;;;;19.73;15.90;;;25.80;99.90;;;;;;6151282;23;20360;-72
2023/08/16 11:10:32;;;;;;;17.93;15.47;;;25.70;99.90;;;;;;6179950;23;20398;-72
2023/08/16 11:12:59;;;;;;;14.53;13.17;;;25.60;99.90;;;;;;6151637;23;20142;-71
2023/08/16 11:15:26;;;;;;;16.67;14.47;;;25.60;99.90;;;;;;6201674;23;20438;-72
2023/08/16 11:17:55;;;;;;;16.60;15.00;;;25.60;99.90;;;;;;6183014;23;20457;-72
2023/08/16 11:20:23;;;;;;;18.90;16.37;;;25.50;99.90;;;;;;6209677;23;20913;-71
2023/08/16 11:22:50;;;;;;;17.53;15.97;;;25.60;99.90;;;;;;6160940;23;20385;-72
2023/08/16 11:25:16;;;;;;;17.40;15.70;;;25.50;99.90;;;;;;6145192;23;20407;-72
2023/08/16 11:27:41;;;;;;;17.97;15.77;;;25.40;99.90;;;;;;6146577;23;20352;-72
2023/08/16 11:30:09;;;;;;;17.20;15.37;;;25.40;99.90;;;;;;6144267;23;20172;-70
2023/08/16 11:32:45;;;;;;;16.13;14.63;;;25.50;99.90;;;;;;6119091;23;20168;-71
2023/08/16 11:35:12;;;;;;;17.80;15.63;;;25.60;99.90;;;;;;6096756;23;20381;-72
2023/08/16 11:37:42;;;;;;;16.80;15.27;;;25.50;99.90;;;;;;6118156;23;20373;-71
2023/08/16 11:40:11;;;;;;;16.97;15.27;;;25.50;99.90;;;;;;6092190;23;20401;-72
2023/08/16 11:42:37;;;;;;;14.60;13.20;;;25.50;99.90;;;;;;6118727;23;20373;-72
2023/08/16 11:45:24;;;;;;;15.10;13.80;;;25.60;99.90;;;;;;6096295;23;20379;-72
2023/08/16 11:47:53;;;;;;;17.50;15.80;;;25.60;99.90;;;;;;6117084;23;20372;-71
2023/08/16 11:50:20;;;;;;;17.87;15.27;;;25.60;99.90;;;;;;6113662;23;20398;-71
2023/08/16 11:52:59;;;;;;;17.53;15.73;;;25.40;99.90;;;;;;6118550;23;20360;-71
2023/08/16 11:55:33;;;;;;;17.50;15.40;;;25.40;99.90;;;;;;6096976;23;20420;-72
2023/08/16 11:58:03;;;;;;;14.57;13.30;;;25.40;99.90;;;;;;6091926;23;20397;-70
2023/08/16 12:00:29;;;;;;;16.73;15.03;;;25.50;99.90;;;;;;6094235;23;20431;-73
2023/08/16 12:02:56;;;;;;;17.93;16.03;;;25.70;99.90;;;;;;6139368;23;20370;-72
2023/08/16 12:05:23;;;;;;;19.57;17.77;;;25.80;99.90;;;;;;6177971;23;20348;-73
2023/08/16 12:07:52;;;;;;;18.07;16.33;;;26.00;99.10;;;;;;6209284;23;20367;-73
2023/08/16 12:10:29;;;;;;;19.20;17.40;;;26.10;97.80;;;;;;6184598;23;20369;-71
2023/08/16 12:12:55;;;;;;;17.50;15.70;;;26.20;96.90;;;;;;6180741;23;20386;-71
2023/08/16 12:15:25;;;;;;;18.57;16.57;;;26.30;95.80;;;;;;6206401;23;20474;-72
2023/08/16 12:17:55;;;;;;;18.40;16.63;;;26.40;94.70;;;;;;6184075;23;20393;-72
2023/08/16 12:20:25;;;;;;;16.23;14.50;;;26.50;94.70;;;;;;6180478;23;20425;-70
2023/08/16 12:22:54;;;;;;;14.90;13.53;;;26.70;93.80;;;;;;6207276;23;20358;-70
2023/08/16 12:25:20;;;;;;;13.67;12.43;;;26.90;92.90;;;;;;6206937;23;20723;-69
2023/08/16 12:27:47;;;;;;;11.70;10.70;;;27.20;91.40;;;;;;6205329;23;20353;-72